Time;durP1;ratioP1;P1;durP2;ratioP2;P2;SDS_P1;SDS_P2;PMS_P1;PMS_P2;Temp;Humidity;BMP_temperature;BMP_pressure;BME280_temperature;BME280_humidity;BME280_pressure;Samples;Min_cycle;Max_cycle;Signal;HPM_P1;HPM_P2
2023/08/26 00:02:20;;;;;;;6.22;5.43;;;;;;;;;;4860670;29;20466;-83
2023/08/26 00:04:50;;;;;;;10.32;5.38;;;;;;;;;;4876217;29;20049;-83
2023/08/26 00:07:20;;;;;;;6.13;5.47;;;;;;;;;;4876613;29;20080;-83
2023/08/26 00:09:47;;;;;;;5.50;4.90;;;;;;;;;;4875305;29;20041;-83
2023/08/26 00:12:15;;;;;;;8.07;5.10;;;;;;;;;;4847022;29;20056;-82
2023/08/26 00:14:43;;;;;;;7.00;5.45;;;;;;;;;;4875847;29;20060;-82
2023/08/26 00:17:12;;;;;;;6.30;5.70;;;;;;;;;;4861106;29;20060;-82
2023/08/26 00:19:39;;;;;;;10.73;6.43;;;;;;;;;;4875174;29;20382;-82
2023/08/26 00:22:07;;;;;;;15.70;7.82;;;;;;;;;;4876043;29;20048;-83
2023/08/26 00:24:36;;;;;;;9.80;6.80;;;;;;;;;;4860152;29;20054;-83
2023/08/26 00:27:06;;;;;;;19.90;9.30;;;;;;;;;;4878340;29;20052;-83
2023/08/26 00:29:35;;;;;;;3.53;2.97;;;;;;;;;;4874363;29;20510;-84
2023/08/26 00:32:03;;;;;;;6.93;2.33;;;;;;;;;;4875277;29;20445;-83
2023/08/26 00:34:30;;;;;;;2.63;1.90;;;;;;;;;;4874773;29;20727;-84
2023/08/26 00:37:05;;;;;;;1.05;0.80;;;;;;;;;;4860950;29;20597;-83
2023/08/26 00:39:34;;;;;;;2.00;1.10;;;;;;;;;;4858601;29;20060;-83
2023/08/26 00:42:01;;;;;;;3.03;0.95;;;;;;;;;;4857485;29;20045;-84
2023/08/26 00:44:29;;;;;;;1.10;0.95;;;;;;;;;;4872578;29;20076;-83
2023/08/26 00:46:59;;;;;;;4.20;1.75;;;;;;;;;;4875613;29;20517;-84
2023/08/26 00:49:28;;;;;;;1.30;1.00;;;;;;;;;;4840840;29;20060;-83
2023/08/26 00:51:58;;;;;;;4.38;1.33;;;;;;;;;;4858291;29;20076;-83
2023/08/26 00:54:32;;;;;;;2.95;1.65;;;;;;;;;;4864464;29;20049;-83
2023/08/26 00:57:05;;;;;;;2.75;1.52;;;;;;;;;;4859681;29;20072;-83
2023/08/26 00:59:35;;;;;;;2.75;1.70;;;;;;;;;;4857844;29;20077;-83
2023/08/26 01:02:06;;;;;;;3.92;1.73;;;;;;;;;;4843623;29;20260;-83
2023/08/26 01:04:33;;;;;;;4.60;1.73;;;;;;;;;;4869334;29;20041;-82
2023/08/26 01:07:04;;;;;;;6.93;2.28;;;;;;;;;;4858641;29;20060;-82
2023/08/26 01:09:31;;;;;;;4.90;2.85;;;;;;;;;;4874967;29;20734;-82
2023/08/26 01:12:03;;;;;;;4.78;3.10;;;;;;;;;;4844192;29;20421;-82
2023/08/26 01:14:36;;;;;;;6.00;3.70;;;;;;;;;;4859531;29;20048;-82
2023/08/26 01:17:08;;;;;;;3.50;3.15;;;;;;;;;;4863444;29;20053;-83
2023/08/26 01:19:37;;;;;;;7.18;4.68;;;;;;;;;;4857409;29;20064;-82
2023/08/26 01:22:08;;;;;;;10.68;5.25;;;;;;;;;;4843658;29;20502;-82
2023/08/26 01:24:39;;;;;;;11.05;5.47;;;;;;;;;;4857669;29;20065;-82
2023/08/26 01:27:07;;;;;;;4.85;4.18;;;;;;;;;;4842111;29;20071;-82
2023/08/26 01:29:36;;;;;;;5.68;5.15;;;;;;;;;;4855166;29;20064;-82
2023/08/26 01:32:14;;;;;;;11.88;5.85;;;;;;;;;;4860446;29;20060;-82
2023/08/26 01:34:48;;;;;;;4.65;4.13;;;;;;;;;;4844457;29;20053;-82
2023/08/26 01:37:16;;;;;;;5.10;4.57;;;;;;;;;;4873629;29;20048;-82
2023/08/26 01:39:47;;;;;;;4.97;4.40;;;;;;;;;;4873377;29;20060;-82
2023/08/26 01:42:19;;;;;;;6.22;4.03;;;;;;;;;;4877842;29;20059;-83
2023/08/26 01:44:47;;;;;;;9.60;4.90;;;;;;;;;;4877357;29;20063;-82
2023/08/26 01:47:14;;;;;;;8.00;5.32;;;;;;;;;;4862695;29;20052;-82
2023/08/26 01:49:46;;;;;;;5.97;4.35;;;;;;;;;;4869612;29;20060;-82
2023/08/26 01:52:13;;;;;;;6.78;5.28;;;;;;;;;;4844904;29;20045;-82
2023/08/26 01:54:40;;;;;;;14.05;4.97;;;;;;;;;;4843996;29;20490;-82
2023/08/26 01:57:11;;;;;;;6.65;4.88;;;;;;;;;;4842194;29;20049;-82
2023/08/26 01:59:40;;;;;;;6.32;5.20;;;;;;;;;;4863961;29;20528;-82
2023/08/26 02:02:07;;;;;;;8.00;5.38;;;;;;;;;;4877049;29;20399;-82
2023/08/26 02:04:40;;;;;;;5.73;5.00;;;;;;;;;;4863678;29;20075;-82
2023/08/26 02:07:09;;;;;;;5.40;4.85;;;;;;;;;;4845599;29;20505;-82
2023/08/26 02:09:38;;;;;;;8.00;5.78;;;;;;;;;;4842567;29;20057;-82
2023/08/26 02:12:09;;;;;;;6.07;5.47;;;;;;;;;;4878156;29;20052;-82
2023/08/26 02:14:38;;;;;;;6.30;5.55;;;;;;;;;;4861846;29;20064;-82
2023/08/26 02:17:08;;;;;;;8.80;5.43;;;;;;;;;;4862264;29;20503;-82
2023/08/26 02:19:35;;;;;;;9.57;6.28;;;;;;;;;;4848571;29;20060;-82
2023/08/26 02:22:05;;;;;;;8.25;5.45;;;;;;;;;;4862123;29;20056;-82
2023/08/26 02:24:34;;;;;;;12.50;6.78;;;;;;;;;;4862094;29;21550;-83
2023/08/26 02:27:04;;;;;;;6.95;6.35;;;;;;;;;;4849203;29;20049;-82
2023/08/26 02:29:36;;;;;;;6.75;5.65;;;;;;;;;;4849546;29;20525;-82
2023/08/26 02:32:07;;;;;;;6.67;6.00;;;;;;;;;;4863607;29;20049;-82
2023/08/26 02:34:37;;;;;;;12.63;7.53;;;;;;;;;;4862626;29;20088;-82
2023/08/26 02:37:06;;;;;;;8.60;7.10;;;;;;;;;;4843405;29;20053;-83
2023/08/26 02:39:34;;;;;;;10.57;7.05;;;;;;;;;;4862816;29;20057;-82
2023/08/26 02:42:04;;;;;;;8.18;6.50;;;;;;;;;;4875928;29;20060;-82
2023/08/26 02:44:31;;;;;;;8.20;7.40;;;;;;;;;;4861286;29;20080;-82
2023/08/26 02:47:01;;;;;;;7.78;6.80;;;;;;;;;;4846736;29;20555;-82
2023/08/26 02:49:31;;;;;;;7.90;6.40;;;;;;;;;;4845199;29;20072;-82
2023/08/26 02:52:04;;;;;;;7.90;7.10;;;;;;;;;;4846312;29;20064;-82
2023/08/26 02:54:31;;;;;;;10.23;7.43;;;;;;;;;;4859957;29;20057;-82
2023/08/26 02:57:00;;;;;;;9.43;7.07;;;;;;;;;;4861799;29;20398;-83
2023/08/26 02:59:28;;;;;;;8.82;7.03;;;;;;;;;;4862154;29;20057;-82
2023/08/26 03:02:01;;;;;;;11.18;7.63;;;;;;;;;;4861880;29;20055;-82
2023/08/26 03:04:29;;;;;;;11.70;7.57;;;;;;;;;;4847652;29;20068;-82
2023/08/26 03:07:01;;;;;;;13.57;8.27;;;;;;;;;;4863651;29;20512;-82
2023/08/26 03:09:31;;;;;;;11.25;7.07;;;;;;;;;;4863233;29;20068;-83
2023/08/26 03:12:00;;;;;;;9.10;7.63;;;;;;;;;;4876164;29;20056;-82
2023/08/26 03:14:29;;;;;;;15.95;8.95;;;;;;;;;;4881169;29;20052;-82
2023/08/26 03:17:00;;;;;;;9.43;6.95;;;;;;;;;;4860075;29;20049;-82
2023/08/26 03:19:29;;;;;;;8.43;7.55;;;;;;;;;;4845563;29;20060;-82
2023/08/26 03:22:00;;;;;;;10.02;7.88;;;;;;;;;;4861735;29;20052;-83
2023/08/26 03:24:29;;;;;;;12.40;8.25;;;;;;;;;;4861882;29;20056;-82
2023/08/26 03:26:57;;;;;;;24.42;8.57;;;;;;;;;;4876757;29;20595;-82
2023/08/26 03:29:24;;;;;;;11.07;6.93;;;;;;;;;;4844328;29;20053;-82
2023/08/26 03:31:54;;;;;;;15.90;7.50;;;;;;;;;;4859302;29;20060;-82
2023/08/26 03:34:24;;;;;;;11.20;7.78;;;;;;;;;;4866679;29;20064;-82
2023/08/26 03:36:54;;;;;;;7.80;6.40;;;;;;;;;;4845301;29;20049;-82
2023/08/26 03:39:22;;;;;;;11.00;7.88;;;;;;;;;;4876621;29;20525;-82
2023/08/26 03:41:52;;;;;;;8.35;6.70;;;;;;;;;;4859590;29;20522;-82
2023/08/26 03:44:20;;;;;;;10.30;8.57;;;;;;;;;;4847412;29;20060;-82
2023/08/26 03:46:52;;;;;;;12.02;7.35;;;;;;;;;;4860910;29;20064;-82
2023/08/26 03:49:19;;;;;;;14.75;7.93;;;;;;;;;;4858540;29;20538;-82
2023/08/26 03:51:49;;;;;;;9.95;6.63;;;;;;;;;;4846720;29;20060;-82
2023/08/26 03:54:19;;;;;;;12.25;7.75;;;;;;;;;;4844620;29;20068;-82
2023/08/26 03:56:47;;;;;;;11.35;8.07;;;;;;;;;;4856762;29;20520;-82
2023/08/26 03:59:15;;;;;;;11.15;7.95;;;;;;;;;;4869489;29;20044;-83
2023/08/26 04:01:44;;;;;;;11.18;8.00;;;;;;;;;;4876372;29;20057;-82
2023/08/26 04:04:11;;;;;;;9.10;7.78;;;;;;;;;;4844966;29;20053;-82
2023/08/26 04:06:40;;;;;;;12.95;8.13;;;;;;;;;;4878611;29;20065;-82
2023/08/26 04:09:08;;;;;;;13.13;9.85;;;;;;;;;;4860386;29;20052;-82
2023/08/26 04:11:40;;;;;;;;;;;;;;;;;;4860660;29;20057;-82
2023/08/26 04:14:09;;;;;;;12.70;7.95;;;;;;;;;;4860292;29;19923;-82
2023/08/26 04:16:36;;;;;;;13.73;7.10;;;;;;;;;;4859412;29;20417;-82
2023/08/26 04:19:06;;;;;;;8.80;7.55;;;;;;;;;;4846265;29;20060;-82
2023/08/26 04:21:35;;;;;;;8.82;7.85;;;;;;;;;;4860948;29;20064;-82
2023/08/26 04:24:04;;;;;;;9.55;7.63;;;;;;;;;;4837246;29;20063;-82
2023/08/26 04:26:34;;;;;;;9.73;8.18;;;;;;;;;;4844235;29;20056;-82
2023/08/26 04:29:02;;;;;;;9.30;7.47;;;;;;;;;;4860843;29;20053;-82
2023/08/26 04:31:31;;;;;;;14.20;7.80;;;;;;;;;;4865462;29;20041;-82
2023/08/26 04:34:00;;;;;;;10.93;7.47;;;;;;;;;;4877644;29;20041;-82
2023/08/26 04:36:29;;;;;;;11.18;8.27;;;;;;;;;;4859715;29;20053;-82
2023/08/26 04:38:58;;;;;;;11.63;7.68;;;;;;;;;;4859340;29;20048;-82
2023/08/26 04:41:28;;;;;;;12.23;9.07;;;;;;;;;;4859984;29;20068;-82
2023/08/26 04:44:00;;;;;;;9.52;7.82;;;;;;;;;;4844881;29;20067;-82
2023/08/26 04:46:27;;;;;;;10.75;8.35;;;;;;;;;;4841036;29;20064;-82
2023/08/26 04:48:56;;;;;;;10.93;8.00;;;;;;;;;;4858654;29;20049;-82
2023/08/26 04:51:25;;;;;;;8.70;7.90;;;;;;;;;;4845084;29;20067;-82
2023/08/26 04:53:54;;;;;;;11.32;9.30;;;;;;;;;;4860324;29;20537;-82
2023/08/26 04:56:21;;;;;;;13.20;6.80;;;;;;;;;;4845209;29;20449;-82
2023/08/26 04:58:51;;;;;;;10.00;8.68;;;;;;;;;;4854962;29;20048;-82
2023/08/26 05:01:18;;;;;;;12.82;8.20;;;;;;;;;;4867239;29;20068;-82
2023/08/26 05:03:45;;;;;;;9.65;7.28;;;;;;;;;;4859913;29;20053;-82
2023/08/26 05:06:16;;;;;;;9.75;7.45;;;;;;;;;;4859276;29;20059;-83
2023/08/26 05:08:43;;;;;;;9.07;6.75;;;;;;;;;;4857944;29;20045;-82
2023/08/26 05:11:13;;;;;;;9.50;6.97;;;;;;;;;;4862086;29;20442;-82
2023/08/26 05:13:41;;;;;;;11.75;7.32;;;;;;;;;;4870004;29;20060;-82
2023/08/26 05:16:08;;;;;;;7.47;6.60;;;;;;;;;;4858824;29;20053;-83
2023/08/26 05:18:38;;;;;;;9.02;7.10;;;;;;;;;;4856088;29;20052;-83
2023/08/26 05:21:05;;;;;;;14.45;7.18;;;;;;;;;;4857711;29;20049;-83
2023/08/26 05:23:34;;;;;;;8.77;6.45;;;;;;;;;;4873464;29;20414;-83
2023/08/26 05:26:01;;;;;;;8.63;7.15;;;;;;;;;;4871971;29;20514;-83
2023/08/26 05:28:31;;;;;;;10.77;6.65;;;;;;;;;;4858851;29;20055;-83
2023/08/26 05:31:02;;;;;;;11.85;7.40;;;;;;;;;;4860133;29;20053;-83
2023/08/26 05:33:34;;;;;;;11.05;7.18;;;;;;;;;;4856090;29;20068;-83
2023/08/26 05:36:01;;;;;;;9.00;6.53;;;;;;;;;;4856639;29;20053;-82
2023/08/26 05:38:28;;;;;;;14.10;7.10;;;;;;;;;;4857065;29;20060;-82
2023/08/26 05:40:59;;;;;;;9.77;7.57;;;;;;;;;;4847576;29;20060;-82
2023/08/26 05:43:29;;;;;;;7.60;6.63;;;;;;;;;;4858696;29;20052;-83
2023/08/26 05:45:57;;;;;;;8.75;5.90;;;;;;;;;;4859178;29;20049;-82
2023/08/26 05:48:29;;;;;;;8.35;6.07;;;;;;;;;;4840986;29;20130;-82
2023/08/26 05:50:58;;;;;;;10.05;5.78;;;;;;;;;;4843212;29;20080;-82
2023/08/26 05:53:29;;;;;;;7.90;5.53;;;;;;;;;;4873863;29;20053;-82
2023/08/26 05:55:56;;;;;;;6.95;4.95;;;;;;;;;;4856555;29;20053;-82
2023/08/26 05:58:29;;;;;;;7.85;5.53;;;;;;;;;;4841644;29;20049;-82
2023/08/26 06:01:00;;;;;;;10.15;5.85;;;;;;;;;;4909427;23;20048;-80
2023/08/26 06:03:33;;;;;;;5.47;4.13;;;;;;;;;;4940805;29;20059;-80
2023/08/26 06:06:03;;;;;;;7.25;5.85;;;;;;;;;;4909435;29;20056;-80
2023/08/26 06:08:33;;;;;;;5.35;4.60;;;;;;;;;;4912844;29;20048;-80
2023/08/26 06:11:15;;;;;;;6.35;4.55;;;;;;;;;;4908566;29;20047;-80
2023/08/26 06:13:48;;;;;;;6.53;4.30;;;;;;;;;;4907645;29;20587;-80
2023/08/26 06:16:19;;;;;;;7.05;3.92;;;;;;;;;;4905987;29;20055;-80
2023/08/26 06:18:46;;;;;;;5.47;4.95;;;;;;;;;;4926416;29;20066;-80
2023/08/26 06:21:15;;;;;;;7.50;5.22;;;;;;;;;;4922982;29;20059;-80
2023/08/26 06:23:42;;;;;;;7.72;3.30;;;;;;;;;;4913079;29;20063;-80
2023/08/26 06:26:10;;;;;;;4.43;3.75;;;;;;;;;;4907654;29;20044;-80
2023/08/26 06:28:40;;;;;;;6.60;3.55;;;;;;;;;;4918964;29;20048;-80
2023/08/26 06:31:12;;;;;;;4.82;4.13;;;;;;;;;;4910535;29;20059;-80
2023/08/26 06:33:43;;;;;;;5.50;3.35;;;;;;;;;;4910109;29;20048;-80
2023/08/26 06:36:11;;;;;;;4.50;3.47;;;;;;;;;;4928244;29;20055;-80
2023/08/26 06:38:38;;;;;;;4.30;3.30;;;;;;;;;;4918237;29;20047;-80
2023/08/26 06:41:06;;;;;;;6.05;3.13;;;;;;;;;;4930698;29;20051;-80
2023/08/26 06:43:38;;;;;;;5.45;2.90;;;;;;;;;;4919775;29;20064;-81
2023/08/26 06:46:08;;;;;;;9.60;3.42;;;;;;;;;;4917262;29;20052;-81
2023/08/26 06:48:39;;;;;;;4.53;2.90;;;;;;;;;;4913185;29;20424;-82
2023/08/26 06:51:12;;;;;;;5.75;2.72;;;;;;;;;;4903702;29;20051;-82
2023/08/26 06:53:42;;;;;;;4.50;3.15;;;;;;;;;;4929624;29;20048;-81
2023/08/26 06:56:10;;;;;;;8.52;3.85;;;;;;;;;;4932454;29;20055;-81
2023/08/26 06:58:39;;;;;;;3.72;2.28;;;;;;;;;;4927486;29;20051;-82
2023/08/26 07:01:09;;;;;;;2.97;2.67;;;;;;;;;;4928531;29;20040;-82
2023/08/26 07:03:40;;;;;;;3.95;2.85;;;;;;;;;;4924988;29;20055;-82
2023/08/26 07:06:07;;;;;;;2.92;2.25;;;;;;;;;;4930029;29;20238;-83
2023/08/26 07:08:39;;;;;;;7.50;2.40;;;;;;;;;;4917701;29;20048;-83
2023/08/26 07:11:09;;;;;;;3.60;2.45;;;;;;;;;;4932832;29;20080;-83
2023/08/26 07:13:36;;;;;;;4.88;2.10;;;;;;;;;;4909948;29;20066;-83
2023/08/26 07:16:06;;;;;;;7.13;2.25;;;;;;;;;;4922582;29;20055;-84
2023/08/26 07:18:38;;;;;;;2.90;2.20;;;;;;;;;;4924156;29;20499;-83
2023/08/26 07:21:07;;;;;;;3.58;2.17;;;;;;;;;;4900326;29;20051;-83
2023/08/26 07:23:34;;;;;;;2.90;2.10;;;;;;;;;;4924205;29;21261;-83
2023/08/26 07:26:05;;;;;;;3.08;2.28;;;;;;;;;;4923754;29;20059;-83
2023/08/26 07:28:32;;;;;;;7.75;2.08;;;;;;;;;;4913405;29;20052;-83
2023/08/26 07:31:02;;;;;;;2.97;1.77;;;;;;;;;;4921028;29;20500;-83
2023/08/26 07:38:07;;;;;;;3.47;1.95;;;;;;;;;;4906938;29;20488;-83
2023/08/26 07:40:36;;;;;;;2.47;1.92;;;;;;;;;;4936247;29;20054;-82
2023/08/26 07:43:06;;;;;;;2.70;2.10;;;;;;;;;;4934786;29;20051;-83
2023/08/26 07:45:36;;;;;;;3.10;1.80;;;;;;;;;;4936002;29;20200;-83
2023/08/26 07:48:07;;;;;;;3.80;1.77;;;;;;;;;;4928952;29;20055;-83
2023/08/26 07:50:35;;;;;;;2.35;1.80;;;;;;;;;;4918160;29;20320;-83
2023/08/26 07:53:05;;;;;;;3.85;1.77;;;;;;;;;;4900183;29;20052;-83
2023/08/26 07:55:34;;;;;;;3.88;2.42;;;;;;;;;;4918728;29;20051;-83
2023/08/26 07:58:01;;;;;;;2.75;2.00;;;;;;;;;;4931155;29;20078;-83
2023/08/26 08:00:28;;;;;;;4.05;2.42;;;;;;;;;;4918103;29;20052;-83
2023/08/26 08:02:56;;;;;;;2.20;1.63;;;;;;;;;;4899245;29;20511;-83
2023/08/26 08:05:23;;;;;;;8.85;2.38;;;;;;;;;;4910853;29;20052;-83
2023/08/26 08:07:53;;;;;;;5.55;2.30;;;;;;;;;;4932908;29;20059;-83
2023/08/26 08:10:22;;;;;;;5.25;2.22;;;;;;;;;;4931416;29;20063;-83
2023/08/26 08:12:54;;;;;;;4.10;1.85;;;;;;;;;;4917801;29;20051;-83
2023/08/26 08:15:21;;;;;;;2.72;1.80;;;;;;;;;;4918048;29;20051;-83
2023/08/26 08:17:50;;;;;;;3.90;2.03;;;;;;;;;;4918306;29;20039;-83
2023/08/26 08:20:19;;;;;;;2.85;1.77;;;;;;;;;;4901038;29;20063;-83
2023/08/26 08:22:47;;;;;;;2.65;2.45;;;;;;;;;;4934140;29;20504;-83
2023/08/26 08:25:15;;;;;;;2.90;1.98;;;;;;;;;;4933859;29;20047;-83
2023/08/26 08:27:44;;;;;;;2.35;1.88;;;;;;;;;;4932393;29;20052;-83
2023/08/26 08:30:13;;;;;;;5.50;1.85;;;;;;;;;;4922070;29;20051;-83
2023/08/26 08:32:43;;;;;;;4.13;1.58;;;;;;;;;;4918041;29;20051;-83
2023/08/26 08:35:10;;;;;;;2.72;2.53;;;;;;;;;;4902237;29;20046;-83
2023/08/26 08:37:38;;;;;;;2.80;2.30;;;;;;;;;;4931693;29;20501;-83
2023/08/26 08:40:06;;;;;;;2.45;1.80;;;;;;;;;;4924318;29;20405;-83
2023/08/26 08:42:37;;;;;;;2.67;2.13;;;;;;;;;;4930752;29;20058;-83
2023/08/26 08:45:05;;;;;;;2.13;1.92;;;;;;;;;;4917806;29;20059;-83
2023/08/26 08:47:34;;;;;;;5.65;1.88;;;;;;;;;;4914751;29;20044;-83
2023/08/26 08:50:05;;;;;;;4.18;1.90;;;;;;;;;;4931498;29;20044;-83
2023/08/26 08:52:33;;;;;;;1.92;1.63;;;;;;;;;;4917030;29;20496;-83
2023/08/26 08:55:01;;;;;;;2.97;2.25;;;;;;;;;;4914669;29;20420;-83
2023/08/26 08:57:31;;;;;;;6.10;1.90;;;;;;;;;;4926810;29;20055;-83
2023/08/26 09:00:06;;;;;;;1.50;1.40;;;;;;;;;;4914230;29;20459;-83
2023/08/26 09:02:40;;;;;;;9.40;2.00;;;;;;;;;;4913951;29;20059;-83
2023/08/26 09:05:10;;;;;;;1.85;1.55;;;;;;;;;;4915366;29;20048;-83
2023/08/26 09:07:37;;;;;;;1.70;1.50;;;;;;;;;;4934756;29;20074;-83
2023/08/26 09:10:06;;;;;;;4.65;1.80;;;;;;;;;;4909428;29;20039;-82
2023/08/26 09:12:33;;;;;;;3.10;2.25;;;;;;;;;;4930587;29;20052;-83
2023/08/26 09:15:03;;;;;;;4.05;1.98;;;;;;;;;;4917288;29;20128;-83
2023/08/26 09:17:33;;;;;;;2.38;2.03;;;;;;;;;;4934408;29;20132;-83
2023/08/26 09:20:05;;;;;;;3.15;1.25;;;;;;;;;;4897042;29;20056;-83
2023/08/26 09:22:33;;;;;;;2.35;1.92;;;;;;;;;;4914222;29;20059;-83
2023/08/26 09:25:04;;;;;;;5.07;1.73;;;;;;;;;;4917232;29;20048;-83
2023/08/26 09:27:34;;;;;;;3.38;2.03;;;;;;;;;;4908134;29;20047;-82
2023/08/26 09:30:02;;;;;;;3.38;2.15;;;;;;;;;;4913590;29;20063;-82
2023/08/26 09:32:33;;;;;;;2.70;1.90;;;;;;;;;;4892919;29;20267;-82
2023/08/26 09:35:11;;;;;;;2.72;1.83;;;;;;;;;;4929204;29;20063;-82
2023/08/26 09:37:43;;;;;;;6.80;1.77;;;;;;;;;;4908665;29;20522;-82
2023/08/26 09:40:13;;;;;;;2.28;2.08;;;;;;;;;;4932312;29;20055;-82
2023/08/26 09:42:40;;;;;;;2.03;1.70;;;;;;;;;;4926382;29;20052;-82
2023/08/26 09:45:10;;;;;;;3.33;1.90;;;;;;;;;;4911204;29;20044;-82
2023/08/26 09:47:38;;;;;;;6.00;2.28;;;;;;;;;;4899913;29;20062;-82
2023/08/26 09:50:10;;;;;;;2.10;1.70;;;;;;;;;;4901501;29;20404;-82
2023/08/26 09:52:42;;;;;;;5.25;1.70;;;;;;;;;;4900099;29;20062;-82
2023/08/26 09:55:14;;;;;;;2.10;1.60;;;;;;;;;;4892445;29;20523;-82
2023/08/26 09:57:44;;;;;;;2.67;1.67;;;;;;;;;;4900154;29;20051;-82
2023/08/26 10:00:12;;;;;;;6.10;2.47;;;;;;;;;;4894089;29;20052;-82
2023/08/26 10:02:49;;;;;;;3.47;1.98;;;;;;;;;;4916942;29;20055;-82
2023/08/26 10:05:23;;;;;;;2.63;1.63;;;;;;;;;;4923712;29;20389;-82
2023/08/26 10:07:55;;;;;;;1.85;1.25;;;;;;;;;;4934130;29;20054;-82
2023/08/26 10:10:28;;;;;;;2.42;1.50;;;;;;;;;;4914266;29;20040;-82
2023/08/26 10:13:01;;;;;;;3.05;1.77;;;;;;;;;;4913112;29;20048;-82
2023/08/26 10:15:32;;;;;;;2.95;1.58;;;;;;;;;;4929277;29;20055;-82
2023/08/26 10:18:07;;;;;;;1.48;1.33;;;;;;;;;;4912966;29;20070;-82
2023/08/26 10:20:39;;;;;;;1.77;1.35;;;;;;;;;;4909943;29;20048;-82
2023/08/26 10:23:07;;;;;;;2.50;1.77;;;;;;;;;;4917542;29;20513;-82
2023/08/26 10:25:34;;;;;;;1.50;1.20;;;;;;;;;;4929179;29;20055;-82
2023/08/26 10:28:04;;;;;;;2.08;1.30;;;;;;;;;;4918164;29;20044;-82
2023/08/26 10:30:34;;;;;;;1.33;1.20;;;;;;;;;;4919863;29;20183;-82
2023/08/26 10:33:05;;;;;;;2.22;1.65;;;;;;;;;;4919244;29;20048;-82
2023/08/26 10:35:34;;;;;;;2.25;1.60;;;;;;;;;;4920111;29;20056;-83
2023/08/26 10:38:11;;;;;;;2.75;1.35;;;;;;;;;;4919750;29;20051;-83
2023/08/26 10:40:38;;;;;;;1.80;0.98;;;;;;;;;;4916789;29;20044;-83
2023/08/26 10:43:08;;;;;;;1.38;1.27;;;;;;;;;;4915403;29;20061;-83
2023/08/26 10:45:45;;;;;;;1.55;1.33;;;;;;;;;;4919247;29;20047;-83
2023/08/26 10:48:13;;;;;;;2.00;1.38;;;;;;;;;;4927219;29;20091;-83
2023/08/26 10:50:44;;;;;;;5.13;2.35;;;;;;;;;;4928462;29;20052;-83
2023/08/26 10:53:19;;;;;;;2.67;1.10;;;;;;;;;;4919675;29;20047;-82
2023/08/26 10:55:52;;;;;;;1.23;1.00;;;;;;;;;;4919906;29;20070;-82
2023/08/26 10:58:23;;;;;;;3.50;1.17;;;;;;;;;;4933214;29;20052;-83
2023/08/26 11:00:54;;;;;;;1.35;1.08;;;;;;;;;;4919959;29;20054;-83
2023/08/26 11:03:23;;;;;;;12.25;2.38;;;;;;;;;;4901189;29;20064;-83
2023/08/26 11:06:01;;;;;;;1.75;1.05;;;;;;;;;;4904507;29;20052;-83
2023/08/26 11:08:33;;;;;;;7.15;1.92;;;;;;;;;;4932538;29;20063;-83
2023/08/26 11:11:00;;;;;;;1.90;1.00;;;;;;;;;;4927294;29;20044;-83
2023/08/26 11:13:27;;;;;;;1.48;1.17;;;;;;;;;;4926662;29;20039;-83
2023/08/26 11:15:54;;;;;;;1.75;1.13;;;;;;;;;;4919657;29;20526;-83
2023/08/26 11:18:24;;;;;;;1.63;0.82;;;;;;;;;;4930711;29;20051;-83
2023/08/26 11:20:51;;;;;;;3.05;1.20;;;;;;;;;;4902897;29;20056;-83
2023/08/26 11:23:19;;;;;;;2.97;1.70;;;;;;;;;;4917860;29;20052;-83
2023/08/26 11:25:47;;;;;;;1.48;1.15;;;;;;;;;;4919343;29;20052;-82
2023/08/26 11:28:15;;;;;;;3.20;1.73;;;;;;;;;;4921585;29;20052;-82
2023/08/26 11:30:46;;;;;;;1.77;1.42;;;;;;;;;;4911073;29;20068;-82
2023/08/26 11:33:17;;;;;;;3.03;1.48;;;;;;;;;;4932022;29;20431;-82
2023/08/26 11:35:46;;;;;;;2.40;1.17;;;;;;;;;;4903656;29;20043;-82
2023/08/26 11:38:14;;;;;;;1.77;1.63;;;;;;;;;;4900746;29;20505;-82
2023/08/26 11:40:42;;;;;;;1.48;1.00;;;;;;;;;;4926942;29;20050;-82
2023/08/26 11:43:14;;;;;;;10.52;1.33;;;;;;;;;;4921304;29;20542;-82
2023/08/26 11:45:45;;;;;;;1.13;0.98;;;;;;;;;;4936066;29;20048;-82
2023/08/26 11:48:15;;;;;;;4.53;1.70;;;;;;;;;;4918855;29;20051;-82
2023/08/26 11:50:43;;;;;;;2.97;1.35;;;;;;;;;;4916625;29;20312;-83
2023/08/26 11:53:12;;;;;;;1.60;1.02;;;;;;;;;;4901100;29;20047;-83
2023/08/26 11:55:42;;;;;;;3.13;1.30;;;;;;;;;;4935095;29;20407;-83
2023/08/26 11:58:15;;;;;;;2.03;1.30;;;;;;;;;;4933154;29;20047;-83
2023/08/26 12:00:43;;;;;;;2.25;1.70;;;;;;;;;;4928949;23;20048;-82
2023/08/26 12:03:10;;;;;;;6.75;2.50;;;;;;;;;;4901901;29;20044;-82
2023/08/26 12:05:45;;;;;;;1.52;1.13;;;;;;;;;;4891896;29;20424;-82
2023/08/26 12:08:14;;;;;;;1.73;1.02;;;;;;;;;;4900897;29;20056;-83
2023/08/26 12:10:50;;;;;;;2.90;1.90;;;;;;;;;;4883250;29;20065;-82
2023/08/26 12:13:19;;;;;;;3.00;2.08;;;;;;;;;;4897957;29;20051;-83
2023/08/26 12:15:46;;;;;;;0.90;0.85;;;;;;;;;;4911917;29;20063;-82
2023/08/26 12:18:14;;;;;;;1.17;0.93;;;;;;;;;;4918419;29;20063;-82
2023/08/26 12:20:44;;;;;;;1.25;0.80;;;;;;;;;;4926477;29;21047;-82
2023/08/26 12:23:13;;;;;;;1.27;1.15;;;;;;;;;;4909272;29;20052;-82
2023/08/26 12:25:44;;;;;;;1.58;0.82;;;;;;;;;;4898695;29;20052;-82
2023/08/26 12:28:17;;;;;;;1.23;1.10;;;;;;;;;;4923254;29;20052;-82
2023/08/26 12:30:48;;;;;;;1.05;0.90;;;;;;;;;;4895931;29;20263;-82
2023/08/26 12:33:16;;;;;;;1.42;1.00;;;;;;;;;;4888684;29;20057;-82
2023/08/26 12:35:45;;;;;;;1.75;1.00;;;;;;;;;;4904785;29;20418;-82
2023/08/26 12:38:13;;;;;;;3.28;1.60;;;;;;;;;;4895673;29;20051;-82
2023/08/26 12:40:42;;;;;;;1.33;1.23;;;;;;;;;;4915219;29;20062;-82
2023/08/26 12:43:11;;;;;;;2.08;1.20;;;;;;;;;;4927192;29;20531;-82
2023/08/26 12:45:39;;;;;;;1.00;0.90;;;;;;;;;;4906639;29;20064;-82
2023/08/26 12:48:09;;;;;;;1.52;1.38;;;;;;;;;;4903618;29;20039;-82
2023/08/26 12:50:37;;;;;;;1.75;1.48;;;;;;;;;;4917519;29;20070;-83
2023/08/26 12:53:05;;;;;;;1.55;1.23;;;;;;;;;;4934500;29;20050;-83
2023/08/26 12:55:32;;;;;;;1.42;0.95;;;;;;;;;;4897190;29;20052;-82
2023/08/26 12:57:59;;;;;;;1.50;1.33;;;;;;;;;;4913150;29;20051;-82
2023/08/26 13:00:29;;;;;;;1.90;1.23;;;;;;;;;;4898468;29;20056;-82
2023/08/26 13:08:52;;;;;;;1.95;1.10;;;;;;;;;;4985450;23;20051;-82
2023/08/26 13:11:19;;;;;;;1.77;1.27;;;;;;;;;;4934814;29;20500;-82
2023/08/26 13:13:47;;;;;;;1.40;1.30;;;;;;;;;;4930148;29;20056;-82
2023/08/26 13:16:14;;;;;;;1.75;1.50;;;;;;;;;;4932883;29;20040;-82
2023/08/26 14:32:59;;;;;;;2.10;1.15;;;;;;;;;;4770062;23;20060;-84
2023/08/26 14:58:49;;;;;;;3.72;1.80;;;;;;;;;;4918500;23;20061;-82
2023/08/26 15:01:16;;;;;;;2.72;1.80;;;;;;;;;;4844201;29;20534;-82
2023/08/26 15:03:44;;;;;;;2.88;1.73;;;;;;;;;;4861681;29;20050;-82
2023/08/26 15:06:11;;;;;;;4.35;1.90;;;;;;;;;;4874158;29;20061;-82
2023/08/26 15:08:39;;;;;;;2.50;1.73;;;;;;;;;;4861953;29;20048;-82
2023/08/26 15:11:06;;;;;;;2.40;1.70;;;;;;;;;;4867446;29;20053;-82
2023/08/26 15:13:33;;;;;;;2.83;1.88;;;;;;;;;;4863584;29;20041;-82
2023/08/26 15:16:02;;;;;;;2.20;1.83;;;;;;;;;;4865989;29;20049;-82
2023/08/26 15:18:30;;;;;;;6.65;2.38;;;;;;;;;;4862530;29;20064;-82
2023/08/26 15:20:57;;;;;;;2.45;2.10;;;;;;;;;;4863027;29;20057;-82
2023/08/26 15:23:25;;;;;;;2.20;1.23;;;;;;;;;;4862176;29;20420;-82
2023/08/26 15:25:53;;;;;;;2.45;1.77;;;;;;;;;;4868249;29;20056;-82
2023/08/26 15:28:20;;;;;;;2.45;1.65;;;;;;;;;;4865181;29;20056;-82
2023/08/26 15:30:49;;;;;;;6.95;1.73;;;;;;;;;;4877752;29;20060;-82
2023/08/26 15:33:18;;;;;;;2.28;1.90;;;;;;;;;;4875475;29;20068;-82
2023/08/26 15:35:49;;;;;;;6.25;1.90;;;;;;;;;;4861797;29;20053;-82
2023/08/26 15:38:16;;;;;;;2.72;1.50;;;;;;;;;;4868889;29;20052;-82
2023/08/26 15:40:51;;;;;;;2.88;1.75;;;;;;;;;;4878987;29;20139;-81
2023/08/26 15:43:18;;;;;;;2.65;1.98;;;;;;;;;;4877607;29;20042;-81
2023/08/26 15:45:46;;;;;;;2.20;1.67;;;;;;;;;;4873329;29;20060;-81
2023/08/26 15:48:13;;;;;;;6.07;1.70;;;;;;;;;;4867126;29;20050;-82
2023/08/26 15:50:42;;;;;;;2.25;1.30;;;;;;;;;;4855782;29;20053;-82
2023/08/26 15:53:13;;;;;;;3.05;2.03;;;;;;;;;;4860807;29;20496;-81
2023/08/26 15:55:40;;;;;;;6.35;1.35;;;;;;;;;;4876484;29;21538;-82
2023/08/26 15:58:07;;;;;;;3.08;1.50;;;;;;;;;;4846330;29;20514;-82
2023/08/26 16:00:35;;;;;;;3.80;1.75;;;;;;;;;;4865812;29;20076;-82
2023/08/26 16:03:02;;;;;;;4.25;1.40;;;;;;;;;;4853679;29;20726;-82
2023/08/26 16:05:30;;;;;;;2.72;1.60;;;;;;;;;;4877526;29;20053;-82
2023/08/26 16:07:58;;;;;;;2.00;1.63;;;;;;;;;;4860961;29;20422;-82
2023/08/26 16:10:52;;;;;;;2.38;1.60;;;;;;;;;;4862682;29;20053;-81
2023/08/26 16:13:42;;;;;;;4.07;1.85;;;;;;;;;;4864187;29;20060;-81
2023/08/26 16:16:21;;;;;;;3.00;1.52;;;;;;;;;;4853154;29;20536;-81
2023/08/26 16:19:06;;;;;;;1.77;1.50;;;;;;;;;;4848576;29;20060;-81
2023/08/26 16:22:10;;;;;;;;;;;;;;;;;;;;;
2023/08/26 16:24:57;;;;;;;2.47;1.58;;;;;;;;;;4853459;29;20053;-81
2023/08/26 16:27:36;;;;;;;;;;;;;;;;;;;;;
2023/08/26 16:30:07;;;;;;;2.27;1.17;;;;;;;;;;4876675;29;20044;-81
2023/08/26 16:32:38;;;;;;;2.80;1.23;;;;;;;;;;4871388;29;20069;-81
2023/08/26 16:35:06;;;;;;;4.15;1.50;;;;;;;;;;4875919;29;20049;-81
2023/08/26 16:37:34;;;;;;;4.22;1.98;;;;;;;;;;4854961;29;20056;-81
2023/08/26 16:40:03;;;;;;;2.33;1.70;;;;;;;;;;4858955;29;20053;-80
2023/08/26 16:42:31;;;;;;;2.05;1.52;;;;;;;;;;4855907;29;20058;-80
2023/08/26 16:44:58;;;;;;;1.65;1.40;;;;;;;;;;4873538;29;20064;-81
2023/08/26 16:47:25;;;;;;;3.78;1.52;;;;;;;;;;4858575;29;20049;-80